createdAt,value
2017-02-18T08:00:14.799Z,32.04
2017-02-18T08:01:25.395Z,31.75
2017-02-18T08:02:35.948Z,29.93
2017-02-18T08:03:46.495Z,29.94
2017-02-18T08:04:57.065Z,29.46
2017-02-18T08:06:07.675Z,29.46
2017-02-18T08:07:18.275Z,29.18
2017-02-18T08:08:28.971Z,28.31
2017-02-18T08:09:39.580Z,28.8
2017-02-18T08:10:50.173Z,28.04
2017-02-18T08:12:00.757Z,27.74
2017-02-18T08:13:11.300Z,27.85
2017-02-18T08:14:21.840Z,27.85
2017-02-18T08:15:32.345Z,27.56
2017-02-18T08:16:43.011Z,27.27
2017-02-18T08:17:53.655Z,27.17
2017-02-18T08:19:04.264Z,27
2017-02-18T08:20:14.863Z,27.48
2017-02-18T08:21:25.534Z,27
2017-02-18T08:22:36.134Z,26.9
2017-02-18T08:23:46.600Z,26.91
2017-02-18T08:24:57.333Z,26.62
2017-02-18T08:26:07.983Z,26.33
2017-02-18T08:27:18.622Z,26.33
2017-02-18T08:28:29.129Z,26.14
2017-02-18T08:29:39.730Z,25.75
2017-02-18T08:30:50.261Z,26.33
2017-02-18T08:32:00.834Z,26.43
2017-02-18T08:33:11.434Z,25.85
2017-02-18T08:34:21.924Z,25.57
2017-02-18T08:35:32.549Z,25.76
2017-02-18T08:36:43.280Z,25.57
2017-02-18T08:37:53.981Z,25.76
2017-02-18T08:39:04.566Z,25.86
2017-02-18T08:40:15.279Z,25.48
2017-02-18T08:41:25.899Z,25.38
2017-02-18T08:42:36.628Z,25.38
2017-02-18T08:43:47.353Z,25.09
2017-02-18T08:44:57.820Z,24.71
2017-02-18T08:46:08.505Z,24.71
2017-02-18T08:47:19.138Z,24.51
2017-02-18T08:48:29.995Z,24.62
2017-02-18T08:49:40.492Z,23.94
2017-02-18T08:50:51.012Z,24.14
2017-02-18T08:52:01.798Z,24.04
2017-02-18T08:53:12.339Z,23.56
2017-02-18T08:54:22.828Z,23.85
2017-02-18T08:55:33.451Z,23.46
2017-02-18T08:56:44.574Z,23.65
2017-02-18T08:57:55.102Z,23.56
2017-02-18T08:59:05.864Z,24.62
2017-02-18T09:00:16.580Z,24.24
2017-02-18T09:01:27.279Z,24.34
2017-02-18T09:02:37.849Z,24.15
2017-02-18T09:03:48.336Z,23.28
2017-02-18T09:04:59.266Z,23.19
2017-02-18T09:06:09.828Z,23.29
2017-02-18T09:07:20.380Z,23.19
2017-02-18T09:08:31.052Z,22.61
2017-02-18T09:09:41.581Z,22.7
2017-02-18T09:10:52.098Z,22.81
2017-02-18T09:12:03.383Z,22.99
2017-02-18T09:13:13.906Z,22.91
2017-02-18T09:14:24.413Z,22.81
2017-02-18T09:15:34.952Z,22.81
2017-02-18T09:16:45.493Z,22.89
2017-02-18T09:17:55.975Z,22.7
2017-02-18T09:19:06.664Z,22.7
2017-02-18T09:20:17.329Z,22.7
2017-02-18T09:21:27.969Z,22.6
2017-02-18T09:22:38.585Z,22.8
2017-02-18T09:23:49.104Z,22.7
2017-02-18T09:24:59.671Z,22.8
2017-02-18T09:26:10.270Z,22.8
2017-02-18T09:27:20.924Z,22.61
2017-02-18T09:28:31.513Z,22.8
2017-02-18T09:29:42.108Z,22.6
2017-02-18T09:30:52.687Z,22.5
2017-02-18T09:32:03.198Z,22.8
2017-02-18T09:33:13.693Z,23.49
2017-02-18T09:34:24.257Z,22.81
2017-02-18T09:35:34.838Z,22.43
2017-02-18T09:36:45.434Z,21.66
2017-02-18T09:37:55.948Z,22.24
2017-02-18T09:39:06.580Z,22.05
2017-02-18T09:40:17.133Z,22.03
2017-02-18T09:41:27.991Z,22.03
2017-02-18T09:42:38.583Z,22.42
2017-02-18T09:43:49.192Z,22.42
2017-02-18T09:44:59.878Z,22.33
2017-02-18T09:46:10.393Z,22.33
2017-02-18T09:47:21.481Z,22.61
2017-02-18T09:48:32.201Z,22.52
2017-02-18T09:49:43.322Z,22.03
2017-02-18T09:50:53.926Z,22.71
2017-02-18T09:52:04.452Z,22.05
2017-02-18T09:53:15.181Z,22.33
2017-02-18T09:54:25.746Z,21.85
2017-02-18T09:55:36.315Z,21.47
2017-02-18T09:56:47.021Z,21.08
2017-02-18T09:57:57.636Z,21.17
2017-02-18T09:59:08.324Z,21.56
2017-02-18T10:00:18.869Z,21.17
2017-02-18T10:01:29.414Z,21.75
2017-02-18T10:02:39.989Z,21.84
2017-02-18T10:03:50.510Z,21.45
2017-02-18T10:05:01.059Z,21.84
2017-02-18T10:06:11.644Z,21.45
2017-02-18T10:07:22.295Z,21.45
2017-02-18T10:08:32.872Z,21.54
2017-02-18T10:09:43.419Z,21.64
2017-02-18T10:10:53.924Z,21.65
2017-02-18T10:12:04.679Z,22.23
2017-02-18T10:13:15.190Z,21.84
2017-02-18T10:14:26.108Z,22.13
2017-02-18T10:15:36.704Z,21.75
2017-02-18T10:16:47.538Z,21.75
2017-02-18T10:17:58.211Z,21.84
2017-02-18T10:19:08.808Z,21.75
2017-02-18T10:20:19.388Z,21.84
2017-02-18T10:21:29.903Z,21.65
2017-02-18T10:22:40.400Z,22.33
2017-02-18T10:23:50.950Z,22.42
2017-02-18T10:25:01.538Z,22.33
2017-02-18T10:26:12.088Z,22.03
2017-02-18T10:27:22.789Z,21.94
2017-02-18T10:28:33.527Z,21.65
2017-02-18T10:29:44.036Z,21.75
2017-02-18T10:30:54.622Z,21.55
2017-02-18T10:32:05.181Z,22.33
2017-02-18T10:33:15.721Z,23.39
2017-02-18T10:34:26.286Z,22.33
2017-02-18T10:35:36.984Z,21.95
2017-02-18T10:36:47.599Z,21.66
2017-02-18T10:37:58.139Z,21.85
2017-02-18T10:39:08.671Z,21.66
2017-02-18T10:40:19.171Z,21.56
2017-02-18T10:41:29.650Z,21.66
2017-02-18T10:42:40.238Z,21.56
2017-02-18T10:43:50.715Z,21.66
2017-02-18T10:45:01.358Z,21.56
2017-02-18T10:46:11.869Z,21.37
2017-02-18T10:47:22.417Z,21.56
2017-02-18T10:48:32.945Z,21.27
2017-02-18T10:49:43.561Z,21.17
2017-02-18T10:50:54.096Z,21.08
2017-02-18T10:52:04.639Z,21.08
2017-02-18T10:53:15.236Z,20.98
2017-02-18T10:54:25.773Z,20.89
2017-02-18T10:55:36.350Z,21.27
2017-02-18T10:56:46.836Z,21.08
2017-02-18T10:57:57.466Z,21.08
2017-02-18T10:59:08.063Z,21.17
2017-02-18T11:00:18.849Z,20.98
2017-02-18T11:01:29.400Z,20.59
2017-02-18T11:02:39.897Z,20.59
2017-02-18T11:03:50.364Z,20.89
2017-02-18T11:05:00.897Z,20.89
2017-02-18T11:06:11.485Z,20.98
2017-02-18T11:07:22.017Z,20.59
2017-02-18T11:08:32.516Z,20.69
2017-02-18T11:09:43.046Z,21.08
2017-02-18T11:10:53.628Z,20.59
2017-02-18T11:12:04.274Z,20.79
2017-02-18T11:13:14.831Z,20.79
2017-02-18T11:14:25.461Z,20.69
2017-02-18T11:15:36.028Z,20.4
2017-02-18T11:16:46.590Z,20.59
2017-02-18T11:17:57.256Z,20.79
2017-02-18T11:19:07.982Z,20.7
2017-02-18T11:20:18.793Z,20.31
2017-02-18T11:21:29.426Z,20.41
2017-02-18T11:22:40.198Z,20.03
2017-02-18T11:23:50.804Z,19.93
2017-02-18T11:25:01.485Z,19.73
2017-02-18T11:26:11.969Z,20.12
2017-02-18T11:27:22.618Z,19.64
2017-02-18T11:28:33.319Z,20.31
2017-02-18T11:29:43.997Z,20.21
2017-02-18T11:30:54.521Z,20.51
2017-02-18T11:32:05.300Z,19.73
2017-02-18T11:33:15.844Z,19.54
2017-02-18T11:34:26.402Z,20.03
2017-02-18T11:35:36.922Z,20.31
2017-02-18T11:36:47.464Z,20.61
2017-02-18T11:37:58.186Z,19.54
2017-02-18T11:39:08.851Z,19.83
2017-02-18T11:40:19.366Z,19.55
2017-02-18T11:41:29.892Z,19.06
2017-02-18T11:42:40.393Z,19.06
2017-02-18T11:43:51.008Z,19.25
2017-02-18T11:45:01.600Z,19.06
2017-02-18T11:46:12.638Z,19.45
2017-02-18T11:47:23.443Z,19.06
2017-02-18T11:48:34.275Z,19.45
2017-02-18T11:49:45.489Z,19.45
2017-02-18T11:50:56.773Z,18.96
2017-02-18T11:52:07.851Z,19.25
2017-02-18T11:53:18.690Z,19.06
2017-02-18T11:54:29.449Z,18.96
2017-02-18T11:55:40.049Z,18.67
2017-02-18T11:56:51.293Z,18.97
2017-02-18T11:58:01.862Z,19.35
2017-02-18T11:59:12.373Z,19.06
2017-02-18T12:00:22.959Z,19.06
2017-02-18T12:01:33.513Z,19.06
2017-02-18T12:02:44.080Z,19.25
2017-02-18T12:03:54.682Z,19.06
2017-02-18T12:05:05.369Z,19.15
2017-02-18T12:06:15.924Z,19.17
2017-02-18T12:07:26.451Z,19.15
2017-02-18T12:08:37.021Z,19.15
2017-02-18T12:09:47.655Z,19.15
2017-02-18T12:10:58.274Z,19.25
2017-02-18T12:12:08.826Z,19.15
2017-02-18T12:13:19.423Z,18.87
2017-02-18T12:14:29.967Z,18.87
2017-02-18T12:15:40.599Z,18.96
2017-02-18T12:16:51.133Z,18.96
2017-02-18T12:18:01.623Z,19.83
2017-02-18T12:19:12.328Z,19.55
2017-02-18T12:20:22.902Z,19.07
2017-02-18T12:21:33.462Z,18.97
2017-02-18T12:22:43.943Z,18.87
2017-02-18T12:23:54.478Z,18.96
2017-02-18T12:25:04.997Z,18.96
2017-02-18T12:26:15.581Z,19.25
2017-02-18T12:27:26.271Z,18.97
2017-02-18T12:28:36.994Z,19.26
2017-02-18T12:29:47.580Z,18.49
2017-02-18T12:30:58.110Z,18.68
2017-02-18T12:32:08.702Z,18.1
2017-02-18T12:33:19.193Z,18.09
2017-02-18T12:34:29.739Z,18.67
2017-02-18T12:35:40.272Z,18.77
2017-02-18T12:36:50.848Z,18.68
2017-02-18T12:38:01.392Z,18.87
2017-02-18T12:39:11.886Z,18.77
2017-02-18T12:40:22.380Z,18.77
2017-02-18T12:41:32.916Z,18.87
2017-02-18T12:42:43.426Z,18.29
2017-02-18T12:43:54.071Z,18.29
2017-02-18T12:45:04.567Z,18.49
2017-02-18T12:46:15.085Z,18.49
2017-02-18T12:47:25.664Z,18.59
2017-02-18T12:48:36.163Z,18.48
2017-02-18T12:49:46.733Z,18.59
2017-02-18T12:50:57.287Z,18.49
2017-02-18T12:52:07.875Z,18.77
2017-02-18T12:53:18.650Z,18.77
2017-02-18T12:54:29.376Z,18.19
2017-02-18T12:55:40.082Z,18.19
2017-02-18T12:56:50.899Z,18.59
2017-02-18T12:58:01.468Z,18.87
2017-02-18T12:59:12.181Z,18.77
2017-02-18T13:00:22.788Z,18.1
2017-02-18T13:01:33.475Z,18.1
2017-02-18T13:02:44.084Z,18.19
2017-02-18T13:03:54.661Z,18.68
2017-02-18T13:05:05.329Z,18.68
2017-02-18T13:06:15.845Z,18
2017-02-18T13:07:26.355Z,18.1
2017-02-18T13:08:36.909Z,18.77
2017-02-18T13:09:47.432Z,18.29
2017-02-18T13:10:58.040Z,19.55
2017-02-18T13:12:08.776Z,19.45
2017-02-18T13:13:19.319Z,19.35
2017-02-18T13:14:29.902Z,18.97
2017-02-18T13:15:40.472Z,18.68
2017-02-18T13:16:51.059Z,18.21
2017-02-18T13:18:01.702Z,18
2017-02-18T13:19:12.256Z,18
2017-02-18T13:20:22.757Z,17.9
2017-02-18T13:21:33.440Z,17.91
2017-02-18T13:22:43.931Z,18.1
2017-02-18T13:23:54.461Z,18.1
2017-02-18T13:25:05.167Z,18
2017-02-18T13:26:15.853Z,18
2017-02-18T13:27:26.716Z,18.97
2017-02-18T13:28:37.510Z,19.07
2017-02-18T13:29:48.234Z,18.87
2017-02-18T13:30:58.948Z,17.71
2017-02-18T13:32:09.803Z,17.72
2017-02-18T13:33:20.626Z,17.91
2017-02-18T13:34:31.270Z,18.11
2017-02-18T13:35:42.021Z,17.91
2017-02-18T13:36:53.086Z,17.72
2017-02-18T13:38:04.089Z,17.91
2017-02-18T13:39:15.015Z,18.01
2017-02-18T13:40:25.736Z,17.82
2017-02-18T13:41:36.552Z,17.62
2017-02-18T13:42:47.270Z,18.49
2017-02-18T13:43:58.558Z,17.52
2017-02-18T13:45:09.496Z,17.72
2017-02-18T13:46:20.523Z,17.91
2017-02-18T13:47:31.233Z,17.91
2017-02-18T13:48:41.958Z,17.71
2017-02-18T13:49:52.705Z,17.71
2017-02-18T13:51:03.298Z,17.61
2017-02-18T13:52:14.047Z,17.04
2017-02-18T13:53:24.634Z,18.11
2017-02-18T13:54:35.186Z,18.11
2017-02-18T13:55:45.700Z,17.72
2017-02-18T13:56:56.254Z,17.9
2017-02-18T13:58:07.074Z,17.62
2017-02-18T13:59:17.790Z,17.13
2017-02-18T14:00:28.411Z,17.72
2017-02-18T14:01:38.985Z,17.61
2017-02-18T14:02:49.574Z,17.43
2017-02-18T14:04:00.231Z,17.52
2017-02-18T14:05:11.035Z,17.71
2017-02-18T14:06:21.704Z,17.42
2017-02-18T14:07:32.428Z,17.71
2017-02-18T14:08:43.091Z,17.42
2017-02-18T14:09:56.892Z,17.13
2017-02-18T14:11:07.719Z,17.22
2017-02-18T14:12:18.348Z,17.03
2017-02-18T14:13:29.117Z,17.13
2017-02-18T14:14:39.997Z,17.61
2017-02-18T14:15:50.559Z,17.71
2017-02-18T14:17:01.882Z,17.71
2017-02-18T14:18:12.653Z,17.13
2017-02-18T14:19:23.904Z,17.61
2017-02-18T14:20:34.825Z,17.61
2017-02-18T14:21:45.472Z,17.61
2017-02-18T14:22:56.220Z,17.42
2017-02-18T14:24:06.955Z,17.13
2017-02-18T14:25:17.755Z,16.94
2017-02-18T14:26:28.414Z,16.55
2017-02-18T14:27:39.099Z,16.74
2017-02-18T14:28:49.780Z,17.03
2017-02-18T14:30:00.317Z,16.84
2017-02-18T14:31:10.859Z,17.03
2017-02-18T14:32:21.396Z,16.84
2017-02-18T14:33:32.117Z,17.03
2017-02-18T14:34:42.907Z,16.93
2017-02-18T14:35:53.667Z,17.03
2017-02-18T14:37:04.280Z,16.84
2017-02-18T14:38:15.003Z,17.9
2017-02-18T14:39:26.032Z,16.55
2017-02-18T14:40:36.952Z,16.55
2017-02-18T14:41:47.476Z,16.84
2017-02-18T14:42:58.106Z,16.46
2017-02-18T14:44:09.694Z,17.03
2017-02-18T14:45:20.311Z,17.03
2017-02-18T14:46:30.935Z,16.55
2017-02-18T14:47:41.521Z,16.94
2017-02-18T14:48:52.025Z,16.55
2017-02-18T14:50:02.879Z,16.16
2017-02-18T14:51:13.617Z,16.74
2017-02-18T14:52:24.242Z,16.16
2017-02-18T14:53:35.180Z,16.55
2017-02-18T14:54:46.117Z,16.16
2017-02-18T14:55:56.820Z,16.06
2017-02-18T14:57:07.439Z,16.16
2017-02-18T14:58:18.024Z,17.03
2017-02-18T14:59:29.402Z,16.75
2017-02-18T15:00:39.881Z,16.56
2017-02-18T15:01:50.702Z,16.46
2017-02-18T15:03:01.454Z,16.56
2017-02-18T15:04:12.459Z,16.17
2017-02-18T15:05:23.156Z,16.46
2017-02-18T15:06:33.761Z,16.85
2017-02-18T15:07:44.418Z,16.75
2017-02-18T15:08:55.269Z,16.94
2017-02-18T15:10:06.068Z,16.75
2017-02-18T15:11:16.790Z,16.56
2017-02-18T15:12:27.410Z,16.94
2017-02-18T15:13:38.157Z,16.17
2017-02-18T15:14:48.673Z,16.27
2017-02-18T15:15:59.451Z,16.17
2017-02-18T15:17:10.032Z,16.36
2017-02-18T15:18:20.586Z,15.69
2017-02-18T15:19:31.144Z,15.78
2017-02-18T15:20:41.707Z,15.78
2017-02-18T15:21:52.767Z,15.39
2017-02-18T15:23:03.356Z,15.39
2017-02-18T15:24:14.103Z,16.07
2017-02-18T15:25:31.143Z,15.88
2017-02-18T15:26:42.007Z,15.11
2017-02-18T15:27:52.617Z,15.87
2017-02-18T15:29:03.230Z,15.48
2017-02-18T15:30:14.925Z,15.97
2017-02-18T15:31:25.740Z,15.97
2017-02-18T15:32:36.419Z,15.58
2017-02-18T15:33:47.336Z,15.58
2017-02-18T15:34:57.892Z,15.58
